Time;durP1;ratioP1;P1;durP2;ratioP2;P2;SDS_P1;SDS_P2;PMS_P1;PMS_P2;Temp;Humidity;BMP_temperature;BMP_pressure;BME280_temperature;BME280_humidity;BME280_pressure;Samples;Min_cycle;Max_cycle;Signal;HPM_P1;HPM_P2
2023/11/24 00:00:09;;;;;;;12.77;3.50;;;;;;;;;;5073007;28;20060;-65
2023/11/24 00:02:36;;;;;;;10.35;2.88;;;;;;;;;;5072939;28;20499;-65
2023/11/24 00:05:06;;;;;;;14.52;2.75;;;;;;;;;;5072506;28;20056;-66
2023/11/24 00:07:32;;;;;;;10.95;2.65;;;;;;;;;;5072524;28;20064;-65
2023/11/24 00:10:00;;;;;;;14.98;2.88;;;;;;;;;;5072614;28;20477;-65
2023/11/24 00:12:28;;;;;;;11.80;3.00;;;;;;;;;;5072888;28;20052;-65
2023/11/24 00:14:56;;;;;;;9.27;3.22;;;;;;;;;;5072280;28;20056;-65
2023/11/24 00:17:23;;;;;;;13.93;3.28;;;;;;;;;;5072951;28;20405;-65
2023/11/24 00:19:49;;;;;;;9.80;3.20;;;;;;;;;;5072046;28;20504;-65
2023/11/24 00:22:16;;;;;;;11.55;3.10;;;;;;;;;;5072667;28;20056;-65
2023/11/24 00:24:43;;;;;;;12.18;3.40;;;;;;;;;;5072294;28;20056;-65
2023/11/24 00:27:09;;;;;;;9.10;2.75;;;;;;;;;;5072416;28;20441;-65
2023/11/24 00:29:36;;;;;;;11.63;2.83;;;;;;;;;;5072269;28;20076;-65
2023/11/24 00:32:06;;;;;;;12.00;2.75;;;;;;;;;;5072402;28;20064;-65
2023/11/24 00:34:32;;;;;;;9.80;2.40;;;;;;;;;;5072197;28;20057;-66
2023/11/24 00:36:59;;;;;;;9.68;2.30;;;;;;;;;;5072413;28;20059;-66
2023/11/24 00:39:26;;;;;;;11.60;2.75;;;;;;;;;;5071906;28;20064;-65
2023/11/24 00:41:53;;;;;;;7.85;2.00;;;;;;;;;;5071843;28;20063;-66
2023/11/24 00:44:20;;;;;;;9.80;2.40;;;;;;;;;;5072132;28;20397;-66
2023/11/24 00:46:46;;;;;;;10.20;2.95;;;;;;;;;;5072126;28;20067;-65
2023/11/24 00:49:15;;;;;;;9.10;2.25;;;;;;;;;;5071961;28;20053;-65
2023/11/24 00:51:41;;;;;;;9.38;2.15;;;;;;;;;;5071639;28;20485;-66
2023/11/24 00:54:09;;;;;;;7.15;2.10;;;;;;;;;;5071897;28;20053;-65
2023/11/24 00:56:36;;;;;;;11.63;3.63;;;;;;;;;;5071972;28;20053;-66
2023/11/24 00:59:03;;;;;;;9.55;2.38;;;;;;;;;;5071690;28;20064;-66
2023/11/24 01:01:29;;;;;;;13.73;2.80;;;;;;;;;;5071881;28;20052;-66
2023/11/24 01:03:58;;;;;;;13.20;2.60;;;;;;;;;;5071839;28;20052;-65
2023/11/24 01:06:26;;;;;;;11.93;2.58;;;;;;;;;;5071817;28;20178;-65
2023/11/24 01:08:53;;;;;;;8.75;2.28;;;;;;;;;;5071482;28;20401;-65
2023/11/24 01:11:20;;;;;;;13.18;3.08;;;;;;;;;;5071669;28;20059;-65
2023/11/24 01:13:47;;;;;;;5.85;1.65;;;;;;;;;;5071692;28;20052;-65
2023/11/24 01:16:14;;;;;;;8.68;2.30;;;;;;;;;;5071707;28;20063;-65
2023/11/24 01:18:41;;;;;;;12.02;2.50;;;;;;;;;;5071675;28;20048;-64
2023/11/24 01:21:08;;;;;;;10.00;2.17;;;;;;;;;;5071647;28;20496;-65
2023/11/24 01:23:37;;;;;;;5.63;1.73;;;;;;;;;;5071229;28;20048;-65
2023/11/24 01:26:05;;;;;;;11.93;2.13;;;;;;;;;;5071593;28;20511;-65
2023/11/24 01:28:31;;;;;;;9.23;2.50;;;;;;;;;;5071452;28;20485;-65
2023/11/24 01:30:58;;;;;;;8.20;1.92;;;;;;;;;;5071434;28;20056;-65
2023/11/24 01:33:25;;;;;;;9.10;2.28;;;;;;;;;;5074930;28;20516;-65
2023/11/24 01:35:53;;;;;;;8.48;2.10;;;;;;;;;;5075235;28;20400;-66
2023/11/24 01:38:20;;;;;;;8.50;1.90;;;;;;;;;;5075420;28;20048;-65
2023/11/24 01:40:48;;;;;;;7.80;1.92;;;;;;;;;;5075027;28;20053;-65
2023/11/24 01:43:15;;;;;;;6.43;1.88;;;;;;;;;;5075311;28;20478;-65
2023/11/24 01:45:44;;;;;;;6.85;1.73;;;;;;;;;;5075014;28;20052;-65
2023/11/24 01:48:11;;;;;;;10.07;2.10;;;;;;;;;;5075264;28;20049;-65
2023/11/24 01:50:38;;;;;;;8.45;2.00;;;;;;;;;;5075111;28;20056;-65
2023/11/24 01:53:05;;;;;;;5.25;1.65;;;;;;;;;;5075036;28;20056;-65
2023/11/24 01:55:32;;;;;;;8.35;2.08;;;;;;;;;;5074821;28;20059;-65
2023/11/24 01:58:00;;;;;;;6.85;2.03;;;;;;;;;;5074893;28;20053;-64
2023/11/24 02:00:27;;;;;;;5.75;1.90;;;;;;;;;;5074728;28;20380;-64
2023/11/24 02:02:54;;;;;;;11.57;2.65;;;;;;;;;;5074836;28;20057;-64
2023/11/24 02:05:21;;;;;;;6.85;1.90;;;;;;;;;;5074583;28;20044;-64
2023/11/24 02:07:49;;;;;;;8.32;1.80;;;;;;;;;;5074593;28;20512;-65
2023/11/24 02:10:16;;;;;;;5.63;1.77;;;;;;;;;;5074535;28;20048;-64
2023/11/24 02:12:43;;;;;;;7.13;1.55;;;;;;;;;;5074914;28;20059;-65
2023/11/24 02:15:11;;;;;;;7.55;1.83;;;;;;;;;;5074339;28;20059;-64
2023/11/24 02:17:38;;;;;;;5.93;1.50;;;;;;;;;;5074728;28;20056;-64
2023/11/24 02:20:08;;;;;;;4.60;1.55;;;;;;;;;;5074559;28;20052;-65
2023/11/24 02:22:39;;;;;;;7.63;1.90;;;;;;;;;;5074782;28;20057;-64
2023/11/24 02:25:07;;;;;;;7.20;1.73;;;;;;;;;;5074410;28;20414;-64
2023/11/24 02:27:33;;;;;;;6.90;1.85;;;;;;;;;;5074038;28;20436;-65
2023/11/24 02:30:01;;;;;;;11.23;2.30;;;;;;;;;;5074098;28;20056;-65
2023/11/24 02:32:28;;;;;;;6.05;1.85;;;;;;;;;;5074569;28;20374;-65
2023/11/24 02:34:55;;;;;;;8.05;1.70;;;;;;;;;;5074106;28;20068;-65
2023/11/24 02:37:22;;;;;;;6.30;1.67;;;;;;;;;;5074403;28;20061;-65
2023/11/24 02:39:50;;;;;;;8.85;1.95;;;;;;;;;;5074272;28;20051;-65
2023/11/24 02:42:17;;;;;;;7.35;1.63;;;;;;;;;;5073755;28;20064;-65
2023/11/24 02:44:44;;;;;;;6.15;1.40;;;;;;;;;;5072988;28;20059;-64
2023/11/24 02:47:11;;;;;;;5.75;1.58;;;;;;;;;;5074230;28;20067;-64
2023/11/24 02:49:39;;;;;;;5.32;1.30;;;;;;;;;;5074087;28;20075;-65
2023/11/24 02:52:07;;;;;;;7.05;1.70;;;;;;;;;;5074134;28;20052;-65
2023/11/24 02:54:34;;;;;;;7.20;1.88;;;;;;;;;;5073710;28;20661;-65
2023/11/24 02:57:03;;;;;;;7.68;1.70;;;;;;;;;;5074029;28;20052;-65
2023/11/24 02:59:30;;;;;;;7.05;1.45;;;;;;;;;;5073622;28;20390;-65
2023/11/24 03:01:57;;;;;;;5.35;1.48;;;;;;;;;;5073827;28;20049;-65
2023/11/24 03:04:23;;;;;;;7.53;1.55;;;;;;;;;;5073527;28;20057;-65
2023/11/24 03:06:52;;;;;;;7.75;2.20;;;;;;;;;;5073232;28;20053;-65
2023/11/24 03:09:22;;;;;;;6.55;1.73;;;;;;;;;;5073654;28;20055;-65
2023/11/24 03:11:49;;;;;;;6.15;1.35;;;;;;;;;;5074318;28;20055;-65
2023/11/24 03:14:20;;;;;;;9.15;2.38;;;;;;;;;;5073674;28;20056;-65
2023/11/24 03:16:47;;;;;;;5.93;1.52;;;;;;;;;;5073594;28;20056;-65
2023/11/24 03:19:14;;;;;;;9.98;2.38;;;;;;;;;;5073617;28;20053;-65
2023/11/24 03:21:40;;;;;;;8.70;2.25;;;;;;;;;;5073568;28;20052;-65
2023/11/24 03:24:07;;;;;;;9.05;2.03;;;;;;;;;;5071328;28;20378;-65
2023/11/24 03:26:34;;;;;;;7.70;1.85;;;;;;;;;;5072915;28;20059;-65
2023/11/24 03:29:02;;;;;;;9.40;2.17;;;;;;;;;;5073508;28;20055;-65
2023/11/24 03:31:30;;;;;;;8.40;2.35;;;;;;;;;;5073604;28;20075;-66
2023/11/24 03:33:57;;;;;;;8.50;2.00;;;;;;;;;;5073557;28;20403;-65
2023/11/24 03:36:23;;;;;;;7.78;1.73;;;;;;;;;;5073456;28;20049;-65
2023/11/24 03:38:50;;;;;;;7.63;2.15;;;;;;;;;;5073508;28;20056;-65
2023/11/24 03:41:17;;;;;;;9.35;2.22;;;;;;;;;;5073073;28;20048;-65
2023/11/24 03:43:44;;;;;;;6.93;1.73;;;;;;;;;;5073419;28;20048;-66
2023/11/24 03:46:11;;;;;;;9.52;1.80;;;;;;;;;;5073330;28;20100;-65
2023/11/24 03:48:39;;;;;;;5.95;2.00;;;;;;;;;;5073248;28;20461;-65
2023/11/24 03:51:07;;;;;;;8.27;2.10;;;;;;;;;;5073390;28;20416;-65
2023/11/24 03:53:34;;;;;;;6.07;2.13;;;;;;;;;;5072950;28;20075;-65
2023/11/24 03:56:01;;;;;;;11.13;1.98;;;;;;;;;;5072861;28;20052;-65
2023/11/24 03:58:28;;;;;;;8.80;2.33;;;;;;;;;;5072773;28;20044;-65
2023/11/24 04:00:55;;;;;;;9.52;2.28;;;;;;;;;;5073161;28;20473;-65
2023/11/24 04:03:21;;;;;;;8.82;1.92;;;;;;;;;;5072781;28;20048;-64
2023/11/24 04:05:50;;;;;;;8.82;1.88;;;;;;;;;;5072657;28;20405;-65
2023/11/24 04:08:16;;;;;;;10.15;2.22;;;;;;;;;;5072594;28;20059;-65
2023/11/24 04:10:43;;;;;;;9.63;2.00;;;;;;;;;;5072825;28;20055;-65
2023/11/24 04:13:10;;;;;;;9.27;2.05;;;;;;;;;;5072850;28;20405;-65
2023/11/24 04:15:37;;;;;;;10.23;2.15;;;;;;;;;;5072786;28;20053;-65
2023/11/24 04:18:04;;;;;;;9.75;2.15;;;;;;;;;;5072780;28;20049;-66
2023/11/24 04:20:30;;;;;;;6.57;2.03;;;;;;;;;;5072684;28;20051;-65
2023/11/24 04:22:59;;;;;;;7.93;2.20;;;;;;;;;;5072692;28;20504;-65
2023/11/24 04:25:25;;;;;;;7.57;1.75;;;;;;;;;;5072009;28;20507;-65
2023/11/24 04:27:52;;;;;;;7.68;2.00;;;;;;;;;;5072066;28;20048;-65
2023/11/24 04:30:19;;;;;;;6.15;1.95;;;;;;;;;;5071875;28;20059;-65
2023/11/24 04:32:46;;;;;;;6.60;1.70;;;;;;;;;;5072033;28;20052;-65
2023/11/24 04:35:13;;;;;;;7.63;1.58;;;;;;;;;;5072238;28;20059;-65
2023/11/24 04:37:40;;;;;;;7.10;1.73;;;;;;;;;;5071810;28;20155;-65
2023/11/24 04:40:09;;;;;;;7.13;1.50;;;;;;;;;;5071791;28;20052;-65
2023/11/24 04:42:35;;;;;;;6.88;1.80;;;;;;;;;;5071802;28;20052;-65
2023/11/24 04:45:02;;;;;;;10.55;1.98;;;;;;;;;;5071922;28;20064;-65
2023/11/24 04:47:29;;;;;;;6.78;1.90;;;;;;;;;;5072236;28;20056;-65
2023/11/24 04:49:56;;;;;;;5.43;1.90;;;;;;;;;;5071948;28;20474;-65
2023/11/24 04:52:23;;;;;;;9.07;1.90;;;;;;;;;;5072112;28;20049;-65
2023/11/24 04:54:50;;;;;;;7.82;1.95;;;;;;;;;;5071934;28;20052;-65
2023/11/24 04:57:18;;;;;;;7.75;1.92;;;;;;;;;;5071872;28;20059;-65
2023/11/24 04:59:45;;;;;;;5.90;1.92;;;;;;;;;;5071817;28;20127;-65
2023/11/24 05:02:13;;;;;;;10.90;2.47;;;;;;;;;;5072051;28;20056;-64
2023/11/24 05:04:39;;;;;;;7.50;1.80;;;;;;;;;;5071490;28;20052;-65
2023/11/24 05:07:06;;;;;;;6.03;1.48;;;;;;;;;;5071351;28;20057;-65
2023/11/24 05:09:33;;;;;;;6.70;1.83;;;;;;;;;;5071496;28;20056;-65
2023/11/24 05:12:00;;;;;;;7.55;2.53;;;;;;;;;;5071891;28;20500;-65
2023/11/24 05:14:28;;;;;;;5.18;2.08;;;;;;;;;;5071765;28;20049;-65
2023/11/24 05:16:55;;;;;;;7.10;2.00;;;;;;;;;;5071833;28;20457;-65
2023/11/24 05:19:22;;;;;;;8.60;2.33;;;;;;;;;;5071714;28;20049;-65
2023/11/24 05:21:48;;;;;;;7.80;2.17;;;;;;;;;;5071627;28;20481;-65
2023/11/24 05:24:16;;;;;;;9.38;1.80;;;;;;;;;;5071328;28;20489;-65
2023/11/24 05:26:43;;;;;;;5.15;1.65;;;;;;;;;;5071680;28;20378;-65
2023/11/24 05:29:10;;;;;;;8.38;1.70;;;;;;;;;;5071455;28;20405;-65
2023/11/24 05:31:38;;;;;;;6.05;1.85;;;;;;;;;;5071637;28;20148;-65
2023/11/24 05:34:05;;;;;;;8.52;2.08;;;;;;;;;;5071452;28;20489;-65
2023/11/24 05:36:33;;;;;;;9.52;1.83;;;;;;;;;;5071473;28;20072;-65
2023/11/24 05:39:00;;;;;;;6.80;2.20;;;;;;;;;;5071162;28;20135;-65
2023/11/24 05:41:27;;;;;;;9.88;2.30;;;;;;;;;;5070879;28;20055;-65
2023/11/24 05:43:53;;;;;;;7.40;2.00;;;;;;;;;;5071309;28;20481;-65
2023/11/24 05:46:20;;;;;;;7.57;1.80;;;;;;;;;;5071125;28;20052;-65
2023/11/24 05:48:48;;;;;;;6.57;2.30;;;;;;;;;;5071243;28;20071;-65
2023/11/24 05:51:15;;;;;;;9.18;2.00;;;;;;;;;;5070952;28;20052;-65
2023/11/24 05:53:42;;;;;;;11.13;1.80;;;;;;;;;;5070871;28;20489;-65
2023/11/24 05:56:09;;;;;;;10.90;2.08;;;;;;;;;;5071119;28;20052;-65
2023/11/24 05:58:36;;;;;;;8.88;2.00;;;;;;;;;;5071279;28;20056;-65
2023/11/24 06:01:03;;;;;;;8.68;2.22;;;;;;;;;;5071144;28;20138;-65
2023/11/24 06:03:30;;;;;;;7.90;1.92;;;;;;;;;;5071174;28;20484;-65
2023/11/24 06:05:59;;;;;;;6.00;1.75;;;;;;;;;;5070913;28;20064;-65
2023/11/24 06:08:27;;;;;;;8.95;2.13;;;;;;;;;;5070641;28;20075;-65
2023/11/24 06:10:53;;;;;;;6.88;1.77;;;;;;;;;;5070849;28;20045;-65
2023/11/24 06:13:20;;;;;;;9.52;2.17;;;;;;;;;;5071208;28;20057;-65
2023/11/24 06:15:47;;;;;;;7.55;2.10;;;;;;;;;;5070541;28;20075;-65
2023/11/24 06:18:15;;;;;;;11.80;2.35;;;;;;;;;;5071238;28;20056;-65
2023/11/24 06:20:42;;;;;;;6.47;1.83;;;;;;;;;;5074624;28;20063;-64
2023/11/24 06:23:10;;;;;;;6.25;1.67;;;;;;;;;;5074487;28;20498;-64
2023/11/24 06:25:36;;;;;;;7.15;1.90;;;;;;;;;;5074102;28;20063;-65
2023/11/24 06:28:02;;;;;;;9.43;2.17;;;;;;;;;;5074767;28;20481;-65
2023/11/24 06:30:29;;;;;;;6.50;1.98;;;;;;;;;;5074316;28;20072;-65
2023/11/24 06:32:56;;;;;;;7.55;2.15;;;;;;;;;;5074431;28;20052;-65
2023/11/24 06:35:23;;;;;;;8.63;2.28;;;;;;;;;;5074251;28;20053;-65
2023/11/24 06:37:49;;;;;;;8.15;1.65;;;;;;;;;;5073927;28;20093;-65
2023/11/24 06:40:18;;;;;;;7.65;1.77;;;;;;;;;;5074098;28;20477;-65
2023/11/24 06:42:46;;;;;;;7.45;1.95;;;;;;;;;;5073903;28;20413;-65
2023/11/24 06:45:13;;;;;;;6.93;1.77;;;;;;;;;;5074105;28;20194;-64
2023/11/24 06:47:40;;;;;;;10.55;2.45;;;;;;;;;;5073798;28;20052;-65
2023/11/24 06:50:08;;;;;;;9.23;3.03;;;;;;;;;;5073686;28;20055;-64
2023/11/24 06:52:35;;;;;;;7.90;2.90;;;;;;;;;;5073601;28;20059;-65
2023/11/24 06:55:02;;;;;;;11.20;2.78;;;;;;;;;;5073659;28;20056;-65
2023/11/24 06:57:30;;;;;;;11.88;2.92;;;;;;;;;;5073459;28;20059;-65
2023/11/24 06:59:57;;;;;;;6.97;2.70;;;;;;;;;;5073905;28;20048;-65
2023/11/24 07:02:23;;;;;;;8.43;2.80;;;;;;;;;;5073982;28;20048;-65
2023/11/24 07:04:50;;;;;;;8.73;2.50;;;;;;;;;;5073423;28;20070;-65
2023/11/24 07:07:17;;;;;;;6.90;2.47;;;;;;;;;;5073851;28;20048;-65
2023/11/24 07:09:44;;;;;;;10.30;2.47;;;;;;;;;;5073361;28;20519;-66
2023/11/24 07:12:12;;;;;;;7.68;2.45;;;;;;;;;;5073901;28;20144;-65
2023/11/24 07:14:40;;;;;;;7.78;2.53;;;;;;;;;;5073448;28;20052;-65
2023/11/24 07:17:07;;;;;;;9.98;2.50;;;;;;;;;;5073826;28;20052;-65
2023/11/24 07:19:33;;;;;;;7.97;2.25;;;;;;;;;;5073664;28;20049;-65
2023/11/24 07:22:01;;;;;;;6.97;2.17;;;;;;;;;;5073634;28;20080;-65
2023/11/24 07:24:28;;;;;;;6.18;2.40;;;;;;;;;;5073186;28;20072;-66
2023/11/24 07:26:55;;;;;;;11.57;2.67;;;;;;;;;;5073542;28;20051;-65
2023/11/24 07:29:22;;;;;;;7.95;2.60;;;;;;;;;;5073104;28;20057;-65
2023/11/24 07:31:50;;;;;;;6.05;2.25;;;;;;;;;;5073396;28;20503;-65
2023/11/24 07:34:17;;;;;;;6.88;2.42;;;;;;;;;;5073300;28;20053;-65
2023/11/24 07:36:44;;;;;;;7.65;2.45;;;;;;;;;;5072916;28;20057;-65
2023/11/24 07:39:11;;;;;;;7.13;2.60;;;;;;;;;;5073438;28;20378;-65
2023/11/24 07:41:38;;;;;;;8.27;2.50;;;;;;;;;;5072856;28;20066;-65
2023/11/24 07:44:05;;;;;;;8.75;2.65;;;;;;;;;;5073241;28;20053;-65
2023/11/24 07:46:32;;;;;;;9.60;2.92;;;;;;;;;;5073182;28;20507;-65
2023/11/24 07:49:00;;;;;;;8.35;2.95;;;;;;;;;;5073214;28;20052;-65
2023/11/24 07:51:26;;;;;;;10.95;2.90;;;;;;;;;;5072839;28;20051;-65
2023/11/24 07:53:55;;;;;;;10.65;2.45;;;;;;;;;;5072631;28;20049;-65
2023/11/24 07:56:22;;;;;;;7.53;2.10;;;;;;;;;;5072931;28;20052;-65
2023/11/24 07:58:48;;;;;;;7.07;2.35;;;;;;;;;;5072922;28;20532;-65
2023/11/24 08:01:15;;;;;;;9.60;2.30;;;;;;;;;;5072767;28;20064;-65
2023/11/24 08:03:42;;;;;;;7.82;2.40;;;;;;;;;;5072896;28;20053;-64
2023/11/24 08:06:11;;;;;;;9.07;2.50;;;;;;;;;;5072750;28;20059;-65
2023/11/24 08:08:38;;;;;;;7.70;2.65;;;;;;;;;;5072464;28;20083;-65
2023/11/24 08:11:05;;;;;;;8.48;2.50;;;;;;;;;;5072465;28;20049;-65
2023/11/24 08:13:32;;;;;;;6.95;1.88;;;;;;;;;;5072663;28;20053;-65
2023/11/24 08:16:00;;;;;;;7.63;1.98;;;;;;;;;;5072640;28;20481;-65
2023/11/24 08:18:26;;;;;;;7.45;2.50;;;;;;;;;;5072591;28;20059;-65
2023/11/24 08:20:53;;;;;;;7.22;1.85;;;;;;;;;;5072581;28;20052;-65
2023/11/24 08:23:22;;;;;;;10.15;2.15;;;;;;;;;;5072475;28;20083;-65
2023/11/24 08:25:48;;;;;;;6.40;1.95;;;;;;;;;;5072307;28;20063;-65
2023/11/24 08:28:15;;;;;;;7.13;1.90;;;;;;;;;;5072372;28;20052;-65
2023/11/24 08:30:43;;;;;;;4.47;1.80;;;;;;;;;;5072139;28;20059;-65
2023/11/24 08:33:10;;;;;;;6.70;2.47;;;;;;;;;;5072388;28;20052;-64
2023/11/24 08:35:38;;;;;;;4.22;1.73;;;;;;;;;;5072162;28;20049;-65
2023/11/24 08:38:05;;;;;;;4.78;2.00;;;;;;;;;;5072556;28;20056;-65
2023/11/24 08:40:33;;;;;;;6.13;1.80;;;;;;;;;;5071974;28;20057;-64
2023/11/24 08:43:00;;;;;;;4.65;1.83;;;;;;;;;;5072027;28;20130;-65
2023/11/24 08:45:28;;;;;;;10.73;2.40;;;;;;;;;;5072187;28;20075;-66
2023/11/24 08:47:55;;;;;;;9.18;2.20;;;;;;;;;;5072004;28;20417;-65
2023/11/24 08:50:21;;;;;;;8.23;2.38;;;;;;;;;;5072050;28;20052;-65
2023/11/24 08:52:49;;;;;;;6.38;2.50;;;;;;;;;;5072194;28;20182;-65
2023/11/24 08:55:16;;;;;;;5.15;1.63;;;;;;;;;;5071843;28;20048;-65
2023/11/24 08:57:45;;;;;;;8.32;2.60;;;;;;;;;;5071730;28;20052;-64
2023/11/24 09:00:14;;;;;;;7.27;2.10;;;;;;;;;;5072434;28;20056;-64
2023/11/24 09:02:41;;;;;;;7.10;2.47;;;;;;;;;;5071796;28;20055;-64
2023/11/24 09:05:09;;;;;;;9.00;2.05;;;;;;;;;;5071892;28;20052;-65
2023/11/24 09:07:36;;;;;;;6.18;1.90;;;;;;;;;;5071741;28;20059;-65
2023/11/24 09:10:03;;;;;;;8.75;2.38;;;;;;;;;;5071675;28;20063;-65
2023/11/24 09:12:30;;;;;;;5.05;1.50;;;;;;;;;;5072158;28;20045;-64
2023/11/24 09:14:58;;;;;;;6.85;1.65;;;;;;;;;;5071725;28;20052;-65
2023/11/24 09:17:25;;;;;;;3.47;1.40;;;;;;;;;;5071917;28;20136;-65
2023/11/24 09:19:52;;;;;;;4.57;1.50;;;;;;;;;;5071515;28;20056;-64
2023/11/24 09:22:19;;;;;;;2.88;1.55;;;;;;;;;;5071936;28;20048;-64
2023/11/24 09:24:46;;;;;;;4.60;1.70;;;;;;;;;;5071482;28;20059;-65
2023/11/24 09:27:12;;;;;;;3.70;1.90;;;;;;;;;;5071770;28;20044;-64
2023/11/24 09:29:39;;;;;;;3.22;1.90;;;;;;;;;;5071620;28;20059;-65
2023/11/24 09:32:08;;;;;;;2.83;1.63;;;;;;;;;;5071563;28;20056;-65
2023/11/24 09:34:35;;;;;;;3.90;1.90;;;;;;;;;;5071715;28;20048;-65
2023/11/24 09:37:02;;;;;;;4.63;1.90;;;;;;;;;;5071776;28;20057;-64
2023/11/24 09:39:29;;;;;;;5.28;2.00;;;;;;;;;;5071534;28;20048;-65
2023/11/24 09:41:56;;;;;;;3.38;1.67;;;;;;;;;;5071115;28;20432;-66
2023/11/24 09:44:23;;;;;;;5.13;1.70;;;;;;;;;;5071504;28;20057;-65
2023/11/24 09:46:51;;;;;;;3.42;1.85;;;;;;;;;;5071525;28;20052;-65
2023/11/24 09:49:20;;;;;;;4.28;1.60;;;;;;;;;;5071579;28;20063;-65
2023/11/24 09:51:46;;;;;;;5.00;1.95;;;;;;;;;;5071493;28;20052;-65
2023/11/24 09:54:14;;;;;;;5.20;1.90;;;;;;;;;;5074457;28;20413;-65
2023/11/24 09:56:43;;;;;;;5.78;1.75;;;;;;;;;;5075320;28;20056;-65
2023/11/24 09:59:10;;;;;;;5.55;2.00;;;;;;;;;;5075006;28;20504;-66
2023/11/24 10:01:37;;;;;;;4.55;1.33;;;;;;;;;;5075295;28;20052;-65
2023/11/24 10:04:05;;;;;;;3.10;1.10;;;;;;;;;;5074806;28;20057;-65
2023/11/24 10:06:33;;;;;;;3.63;1.20;;;;;;;;;;5075214;28;20056;-65
2023/11/24 10:09:00;;;;;;;6.15;1.35;;;;;;;;;;5074770;28;20070;-65
2023/11/24 10:11:28;;;;;;;2.95;1.23;;;;;;;;;;5074798;28;20127;-65
2023/11/24 10:13:56;;;;;;;2.33;1.15;;;;;;;;;;5074648;28;20056;-65
2023/11/24 10:16:23;;;;;;;3.08;1.00;;;;;;;;;;5074839;28;20064;-65
2023/11/24 10:18:50;;;;;;;3.17;1.10;;;;;;;;;;5074962;28;20063;-65
2023/11/24 10:21:18;;;;;;;2.33;1.00;;;;;;;;;;5074345;28;20052;-65
2023/11/24 10:23:48;;;;;;;3.33;1.27;;;;;;;;;;5074347;28;20056;-65
2023/11/24 10:26:16;;;;;;;2.83;1.15;;;;;;;;;;5074484;28;20052;-65
2023/11/24 10:28:43;;;;;;;2.80;1.20;;;;;;;;;;5074731;28;20057;-65
2023/11/24 10:31:12;;;;;;;1.63;0.90;;;;;;;;;;5074562;28;20051;-65
2023/11/24 10:33:39;;;;;;;3.17;0.70;;;;;;;;;;5074329;28;20057;-65
2023/11/24 10:36:06;;;;;;;1.65;0.50;;;;;;;;;;5074351;28;20056;-66
2023/11/24 10:38:35;;;;;;;2.38;0.80;;;;;;;;;;5074560;28;20052;-66
2023/11/24 10:41:04;;;;;;;1.42;0.60;;;;;;;;;;5074354;28;20517;-66
2023/11/24 10:43:32;;;;;;;2.67;0.50;;;;;;;;;;5074488;28;20067;-66
2023/11/24 10:46:01;;;;;;;1.30;0.57;;;;;;;;;;5074560;28;20056;-66
2023/11/24 10:48:30;;;;;;;2.42;0.70;;;;;;;;;;5074293;28;20489;-65
2023/11/24 10:51:00;;;;;;;2.25;0.68;;;;;;;;;;5074395;28;20052;-66
2023/11/24 10:53:29;;;;;;;1.80;0.70;;;;;;;;;;5074113;28;20052;-66
2023/11/24 10:55:57;;;;;;;1.90;0.82;;;;;;;;;;5074154;28;20144;-65
2023/11/24 10:58:26;;;;;;;2.67;0.85;;;;;;;;;;5074286;28;20413;-66
2023/11/24 11:00:52;;;;;;;2.63;1.08;;;;;;;;;;5073947;28;20055;-66
2023/11/24 11:03:19;;;;;;;1.80;0.80;;;;;;;;;;5074120;28;20044;-66
2023/11/24 11:05:55;;;;;;;3.05;1.83;;;;;;;;;;5073227;28;20052;-66
2023/11/24 11:08:28;;;;;;;2.50;1.20;;;;;;;;;;5074125;28;20053;-66
2023/11/24 11:11:12;;;;;;;6.10;4.25;;;;;;;;;;5074062;28;20059;-65
2023/11/24 11:13:41;;;;;;;4.57;2.40;;;;;;;;;;5072787;28;20049;-66
2023/11/24 11:16:09;;;;;;;4.55;1.60;;;;;;;;;;5073996;28;20135;-65
2023/11/24 11:18:36;;;;;;;5.80;1.95;;;;;;;;;;5074057;28;20382;-65
2023/11/24 11:21:10;;;;;;;5.60;2.40;;;;;;;;;;5073927;28;20053;-66
2023/11/24 11:23:37;;;;;;;8.85;3.33;;;;;;;;;;5073852;28;20412;-66
2023/11/24 11:26:04;;;;;;;5.78;2.88;;;;;;;;;;5073613;28;20358;-66
2023/11/24 11:28:35;;;;;;;7.47;2.47;;;;;;;;;;5073353;28;20053;-66
2023/11/24 11:31:27;;;;;;;7.43;2.40;;;;;;;;;;5073345;28;20057;-66
2023/11/24 11:33:55;;;;;;;8.20;3.30;;;;;;;;;;5063131;28;20052;-66
2023/11/24 11:36:25;;;;;;;8.65;2.90;;;;;;;;;;5073410;28;20060;-66
2023/11/24 11:38:53;;;;;;;;;;;;;;;;;;5073618;28;20508;-66
2023/11/24 11:41:40;;;;;;;6.45;2.28;;;;;;;;;;5073054;28;19921;-66
2023/11/24 11:44:22;;;;;;;5.53;1.80;;;;;;;;;;5073080;28;20059;-66
2023/11/24 11:47:08;;;;;;;6.80;2.08;;;;;;;;;;5073510;28;20052;-66
2023/11/24 11:49:37;;;;;;;4.72;1.70;;;;;;;;;;5073349;28;20059;-66
2023/11/24 11:52:06;;;;;;;4.45;1.30;;;;;;;;;;5073290;28;20469;-66
2023/11/24 11:54:33;;;;;;;3.03;1.00;;;;;;;;;;5073273;28;20053;-66
2023/11/24 11:57:00;;;;;;;3.13;1.30;;;;;;;;;;5073197;28;20048;-67
2023/11/24 11:59:27;;;;;;;3.88;1.38;;;;;;;;;;5073102;28;20056;-66
2023/11/24 12:01:54;;;;;;;3.17;1.50;;;;;;;;;;5073098;28;20400;-66
2023/11/24 12:04:21;;;;;;;3.90;1.38;;;;;;;;;;5073003;28;20064;-65
2023/11/24 12:06:51;;;;;;;2.38;0.90;;;;;;;;;;5073067;28;20056;-66
2023/11/24 12:09:18;;;;;;;2.22;0.80;;;;;;;;;;5072427;28;20056;-65
2023/11/24 12:11:45;;;;;;;2.47;0.77;;;;;;;;;;5072244;28;20056;-65
2023/11/24 12:14:12;;;;;;;1.73;0.70;;;;;;;;;;5072654;28;20040;-65
2023/11/24 12:16:40;;;;;;;3.55;0.90;;;;;;;;;;5072553;28;20055;-65
2023/11/24 12:19:07;;;;;;;3.30;0.90;;;;;;;;;;5072393;28;20147;-65
2023/11/24 12:21:34;;;;;;;4.43;1.30;;;;;;;;;;5072637;28;20060;-65
2023/11/24 12:24:04;;;;;;;3.60;1.00;;;;;;;;;;5072496;28;20390;-66
2023/11/24 12:26:31;;;;;;;4.63;1.30;;;;;;;;;;5072498;28;20057;-66
2023/11/24 12:28:58;;;;;;;3.50;1.17;;;;;;;;;;5072154;28;20055;-66
2023/11/24 12:31:27;;;;;;;4.53;1.20;;;;;;;;;;5072333;28;20053;-66
2023/11/24 12:33:55;;;;;;;2.75;1.25;;;;;;;;;;5072385;28;20067;-66
2023/11/24 12:36:23;;;;;;;2.33;1.20;;;;;;;;;;5072430;28;20055;-66
2023/11/24 12:38:50;;;;;;;3.20;1.50;;;;;;;;;;5072068;28;20052;-66
2023/11/24 12:41:18;;;;;;;5.82;1.20;;;;;;;;;;5071969;28;20056;-66
2023/11/24 12:43:50;;;;;;;4.20;1.13;;;;;;;;;;5072533;28;20051;-65
2023/11/24 12:46:21;;;;;;;2.92;1.30;;;;;;;;;;5072505;28;20114;-65
2023/11/24 12:48:48;;;;;;;3.80;1.30;;;;;;;;;;5071888;28;20057;-66
2023/11/24 12:51:15;;;;;;;6.85;1.80;;;;;;;;;;5072307;28;20052;-65
2023/11/24 12:53:42;;;;;;;4.53;1.45;;;;;;;;;;5071877;28;20052;-65
2023/11/24 12:56:09;;;;;;;5.43;1.40;;;;;;;;;;5072169;28;20134;-65
2023/11/24 12:58:38;;;;;;;5.70;1.70;;;;;;;;;;5072000;28;20476;-66
2023/11/24 13:01:08;;;;;;;6.18;1.75;;;;;;;;;;5072047;28;20052;-65
2023/11/24 13:03:36;;;;;;;6.22;1.70;;;;;;;;;;5072038;28;20484;-65
2023/11/24 13:06:03;;;;;;;4.72;1.35;;;;;;;;;;5071871;28;20048;-65
2023/11/24 13:08:30;;;;;;;6.28;1.75;;;;;;;;;;5071762;28;20057;-65
2023/11/24 13:10:58;;;;;;;6.90;2.00;;;;;;;;;;5071736;28;20055;-65
2023/11/24 13:13:25;;;;;;;5.40;1.40;;;;;;;;;;5071948;28;20405;-65
2023/11/24 13:15:53;;;;;;;4.45;1.30;;;;;;;;;;5071893;28;20391;-65
2023/11/24 13:18:20;;;;;;;5.32;1.65;;;;;;;;;;5071778;28;20053;-64
2023/11/24 13:20:48;;;;;;;4.07;1.35;;;;;;;;;;5071973;28;20059;-65
2023/11/24 13:23:13;;;;;;;5.60;2.00;;;;;;;;;;5071732;28;20059;-64
2023/11/24 13:25:41;;;;;;;6.70;2.20;;;;;;;;;;5071693;28;20052;-64
2023/11/24 13:28:08;;;;;;;5.60;2.28;;;;;;;;;;5073287;28;20056;-65
2023/11/24 13:30:35;;;;;;;6.53;2.45;;;;;;;;;;5075605;28;20405;-65
2023/11/24 13:33:04;;;;;;;6.05;2.40;;;;;;;;;;5075789;28;20052;-65
2023/11/24 13:35:31;;;;;;;4.15;1.70;;;;;;;;;;5075843;28;20056;-65
2023/11/24 13:37:58;;;;;;;5.60;1.85;;;;;;;;;;5075468;28;20060;-65
2023/11/24 13:40:30;;;;;;;5.68;1.60;;;;;;;;;;5075581;28;20060;-66
2023/11/24 13:42:57;;;;;;;5.30;2.08;;;;;;;;;;5075576;28;20049;-65
2023/11/24 13:45:26;;;;;;;7.47;1.98;;;;;;;;;;5075229;28;20053;-65
2023/11/24 13:47:53;;;;;;;4.72;1.35;;;;;;;;;;5075196;28;20080;-65
2023/11/24 13:50:22;;;;;;;7.85;1.90;;;;;;;;;;5075241;28;20056;-65
2023/11/24 13:52:55;;;;;;;4.13;1.20;;;;;;;;;;5075203;28;20485;-65
2023/11/24 13:55:22;;;;;;;4.88;1.60;;;;;;;;;;5075043;28;20048;-65
2023/11/24 13:57:50;;;;;;;4.78;1.50;;;;;;;;;;5075435;28;20049;-65
2023/11/24 14:00:17;;;;;;;5.38;1.60;;;;;;;;;;5075111;28;20068;-64
2023/11/24 14:02:45;;;;;;;6.25;1.52;;;;;;;;;;5075396;28;20064;-59
2023/11/24 14:05:13;;;;;;;5.45;1.70;;;;;;;;;;5074788;28;20052;-59
2023/11/24 14:07:44;;;;;;;7.13;1.50;;;;;;;;;;5074915;28;20413;-59
2023/11/24 14:10:13;;;;;;;6.47;1.95;;;;;;;;;;5074889;28;20474;-59
2023/11/24 14:12:40;;;;;;;4.90;1.98;;;;;;;;;;5075146;28;20059;-59
2023/11/24 14:15:07;;;;;;;7.13;1.67;;;;;;;;;;5074710;28;20412;-59
2023/11/24 14:17:35;;;;;;;5.82;1.80;;;;;;;;;;5075091;28;20417;-59
2023/11/24 14:20:02;;;;;;;7.00;2.33;;;;;;;;;;5075073;28;20048;-60
2023/11/24 14:22:29;;;;;;;5.45;1.88;;;;;;;;;;5075124;28;20056;-59
2023/11/24 14:24:58;;;;;;;6.35;1.55;;;;;;;;;;5074289;28;20052;-59
2023/11/24 14:27:25;;;;;;;5.47;1.90;;;;;;;;;;5074629;28;20059;-59
2023/11/24 14:29:52;;;;;;;6.57;1.90;;;;;;;;;;5074511;28;20056;-58
2023/11/24 14:32:19;;;;;;;8.77;1.88;;;;;;;;;;5074993;28;20052;-59
2023/11/24 14:34:46;;;;;;;7.20;1.73;;;;;;;;;;5074855;28;20052;-59
2023/11/24 14:37:13;;;;;;;6.78;1.60;;;;;;;;;;5074912;28;20049;-59
2023/11/24 14:39:43;;;;;;;7.93;1.85;;;;;;;;;;5073835;28;20413;-59
2023/11/24 14:42:14;;;;;;;6.80;1.73;;;;;;;;;;5074095;28;20056;-59